Archival Weather

City

City, United Kingdom (EGLC)

Report from: Thursday, July 21, 2022 11:50 AM BST
Current time: Sunday, January 29, 2023 3:48 PM GMT

Current weather
Weather history
Weather forecast

Temperature23.0°C (73.4°F)
Dew point14.0°C (57.2°F)
Winds 6 kts (3.1 m/s, 6.9 mph) Vrb
Winds variableWinds variable from North-Northeast (20°) to West (260°)
Visibility6.2 mi. (10 km)
Clouds Scattered clouds 3,200 ft. (975 m)
Altimeter30.18 in.Hg (1022 mB)
Relative humidity57 %
Density altitude859 ft. (262 m)
Remarks Fully automated report
Flight conditions Visual Meteorological Conditions
Raw dataEGLC 211050Z AUTO 34006KT 260V020 9999 SCT032 23/14 Q1022
An error has occurred. This application may no longer respond until reloaded. Reload 🗙